sensor_id;sensor_type;location;lat;lon;timestamp;P1;durP1;ratioP1;P2;durP2;ratioP2
51296;SDS011;37380;45.186;9.792;2022-09-09T00:04:42;32.80;;;24.48;;
51296;SDS011;37380;45.186;9.792;2022-09-09T00:13:18;30.90;;;27.55;;
51296;SDS011;37380;45.186;9.792;2022-09-09T00:16:04;31.10;;;27.23;;
51296;SDS011;37380;45.186;9.792;2022-09-09T00:21:24;36.20;;;28.70;;
51296;SDS011;37380;45.186;9.792;2022-09-09T00:24:22;34.83;;;27.92;;
51296;SDS011;37380;45.186;9.792;2022-09-09T00:27:49;41.15;;;27.80;;
51296;SDS011;37380;45.186;9.792;2022-09-09T00:30:26;45.75;;;28.17;;
51296;SDS011;37380;45.186;9.792;2022-09-09T00:33:28;35.88;;;29.15;;
51296;SDS011;37380;45.186;9.792;2022-09-09T00:35:57;38.60;;;29.83;;
51296;SDS011;37380;45.186;9.792;2022-09-09T00:38:33;33.95;;;27.67;;
51296;SDS011;37380;45.186;9.792;2022-09-09T00:55:56;42.77;;;33.70;;
51296;SDS011;37380;45.186;9.792;2022-09-09T00:58:31;48.60;;;33.65;;
51296;SDS011;37380;45.186;9.792;2022-09-09T01:01:32;42.33;;;33.20;;
51296;SDS011;37380;45.186;9.792;2022-09-09T01:04:33;39.15;;;32.00;;
51296;SDS011;37380;45.186;9.792;2022-09-09T01:07:17;34.28;;;30.73;;
51296;SDS011;37380;45.186;9.792;2022-09-09T01:09:58;38.00;;;31.65;;
51296;SDS011;37380;45.186;9.792;2022-09-09T01:12:43;36.75;;;31.88;;
51296;SDS011;37380;45.186;9.792;2022-09-09T01:15:19;41.35;;;33.67;;
51296;SDS011;37380;45.186;9.792;2022-09-09T01:20:31;38.97;;;34.83;;
51296;SDS011;37380;45.186;9.792;2022-09-09T01:29:44;45.75;;;35.85;;
51296;SDS011;37380;45.186;9.792;2022-09-09T01:32:50;38.40;;;34.00;;
51296;SDS011;37380;45.186;9.792;2022-09-09T01:35:41;44.42;;;35.95;;
51296;SDS011;37380;45.186;9.792;2022-09-09T01:38:09;48.53;;;38.70;;
51296;SDS011;37380;45.186;9.792;2022-09-09T01:40:38;46.75;;;39.17;;
51296;SDS011;37380;45.186;9.792;2022-09-09T01:43:05;44.15;;;39.55;;
51296;SDS011;37380;45.186;9.792;2022-09-09T01:45:34;49.05;;;38.13;;
51296;SDS011;37380;45.186;9.792;2022-09-09T01:48:02;47.75;;;37.88;;
51296;SDS011;37380;45.186;9.792;2022-09-09T01:50:42;45.30;;;37.67;;
51296;SDS011;37380;45.186;9.792;2022-09-09T01:53:13;38.25;;;34.13;;
51296;SDS011;37380;45.186;9.792;2022-09-09T02:10:53;48.70;;;36.20;;
51296;SDS011;37380;45.186;9.792;2022-09-09T02:13:35;50.10;;;36.97;;
51296;SDS011;37380;45.186;9.792;2022-09-09T02:16:09;46.08;;;37.42;;
51296;SDS011;37380;45.186;9.792;2022-09-09T02:22:00;41.35;;;37.03;;
51296;SDS011;37380;45.186;9.792;2022-09-09T02:24:59;46.17;;;38.00;;
51296;SDS011;37380;45.186;9.792;2022-09-09T02:27:35;48.90;;;37.07;;
51296;SDS011;37380;45.186;9.792;2022-09-09T02:30:36;40.35;;;35.92;;
51296;SDS011;37380;45.186;9.792;2022-09-09T02:33:40;47.55;;;35.88;;
51296;SDS011;37380;45.186;9.792;2022-09-09T02:36:12;41.08;;;36.78;;
51296;SDS011;37380;45.186;9.792;2022-09-09T02:38:45;44.10;;;35.78;;
51296;SDS011;37380;45.186;9.792;2022-09-09T02:41:25;46.28;;;36.92;;
51296;SDS011;37380;45.186;9.792;2022-09-09T02:57:06;40.25;;;35.85;;
51296;SDS011;37380;45.186;9.792;2022-09-09T02:59:44;48.55;;;39.03;;
51296;SDS011;37380;45.186;9.792;2022-09-09T03:02:46;49.40;;;37.88;;
51296;SDS011;37380;45.186;9.792;2022-09-09T03:05:40;44.47;;;35.72;;
51296;SDS011;37380;45.186;9.792;2022-09-09T03:08:10;38.03;;;34.03;;
51296;SDS011;37380;45.186;9.792;2022-09-09T03:10:40;52.63;;;37.35;;
51296;SDS011;37380;45.186;9.792;2022-09-09T03:13:09;59.42;;;40.25;;
51296;SDS011;37380;45.186;9.792;2022-09-09T03:15:38;49.75;;;35.97;;
51296;SDS011;37380;45.186;9.792;2022-09-09T03:18:08;47.72;;;37.97;;
51296;SDS011;37380;45.186;9.792;2022-09-09T03:20:35;45.83;;;38.10;;
51296;SDS011;37380;45.186;9.792;2022-09-09T03:23:02;44.92;;;38.53;;
51296;SDS011;37380;45.186;9.792;2022-09-09T03:25:29;49.10;;;40.25;;
51296;SDS011;37380;45.186;9.792;2022-09-09T03:28:03;54.28;;;41.65;;
51296;SDS011;37380;45.186;9.792;2022-09-09T03:30:58;51.65;;;40.28;;
51296;SDS011;37380;45.186;9.792;2022-09-09T03:33:34;48.70;;;41.28;;
51296;SDS011;37380;45.186;9.792;2022-09-09T03:36:04;55.75;;;40.75;;
51296;SDS011;37380;45.186;9.792;2022-09-09T03:38:31;49.95;;;42.33;;
51296;SDS011;37380;45.186;9.792;2022-09-09T03:40:59;48.67;;;41.63;;
51296;SDS011;37380;45.186;9.792;2022-09-09T03:43:29;54.38;;;44.80;;
51296;SDS011;37380;45.186;9.792;2022-09-09T03:45:57;58.15;;;44.38;;
51296;SDS011;37380;45.186;9.792;2022-09-09T03:48:25;53.65;;;43.25;;
51296;SDS011;37380;45.186;9.792;2022-09-09T03:50:55;46.65;;;41.17;;
51296;SDS011;37380;45.186;9.792;2022-09-09T03:53:24;52.10;;;43.92;;
51296;SDS011;37380;45.186;9.792;2022-09-09T03:55:53;48.75;;;41.40;;
51296;SDS011;37380;45.186;9.792;2022-09-09T03:58:30;58.53;;;42.10;;
51296;SDS011;37380;45.186;9.792;2022-09-09T04:01:31;60.03;;;41.63;;
51296;SDS011;37380;45.186;9.792;2022-09-09T04:04:33;48.03;;;40.97;;
51296;SDS011;37380;45.186;9.792;2022-09-09T04:07:14;47.70;;;41.75;;
51296;SDS011;37380;45.186;9.792;2022-09-09T04:09:42;52.42;;;43.15;;
51296;SDS011;37380;45.186;9.792;2022-09-09T04:12:09;60.00;;;42.53;;
51296;SDS011;37380;45.186;9.792;2022-09-09T04:14:40;59.55;;;42.92;;
51296;SDS011;37380;45.186;9.792;2022-09-09T04:17:07;51.58;;;45.65;;
51296;SDS011;37380;45.186;9.792;2022-09-09T04:19:34;51.55;;;43.72;;
51296;SDS011;37380;45.186;9.792;2022-09-09T04:22:02;56.58;;;42.10;;
51296;SDS011;37380;45.186;9.792;2022-09-09T04:24:29;56.97;;;42.72;;
51296;SDS011;37380;45.186;9.792;2022-09-09T04:27:04;59.00;;;42.60;;
51296;SDS011;37380;45.186;9.792;2022-09-09T04:30:06;50.58;;;42.53;;
51296;SDS011;37380;45.186;9.792;2022-09-09T04:33:01;61.47;;;42.35;;
51296;SDS011;37380;45.186;9.792;2022-09-09T04:35:33;56.75;;;41.05;;
51296;SDS011;37380;45.186;9.792;2022-09-09T04:38:00;65.13;;;47.03;;
51296;SDS011;37380;45.186;9.792;2022-09-09T04:40:30;72.00;;;46.92;;
51296;SDS011;37380;45.186;9.792;2022-09-09T04:42:58;54.60;;;46.53;;
51296;SDS011;37380;45.186;9.792;2022-09-09T04:45:25;50.35;;;44.63;;
51296;SDS011;37380;45.186;9.792;2022-09-09T04:47:53;53.92;;;44.13;;
51296;SDS011;37380;45.186;9.792;2022-09-09T04:50:26;62.20;;;43.10;;
51296;SDS011;37380;45.186;9.792;2022-09-09T04:53:20;52.80;;;40.47;;
51296;SDS011;37380;45.186;9.792;2022-09-09T04:56:05;58.75;;;42.45;;
51296;SDS011;37380;45.186;9.792;2022-09-09T04:59:10;63.05;;;43.47;;
51296;SDS011;37380;45.186;9.792;2022-09-09T05:02:15;61.08;;;42.30;;
51296;SDS011;37380;45.186;9.792;2022-09-09T05:05:17;50.65;;;39.80;;
51296;SDS011;37380;45.186;9.792;2022-09-09T05:08:02;49.72;;;40.90;;
51296;SDS011;37380;45.186;9.792;2022-09-09T05:10:31;50.67;;;38.05;;
51296;SDS011;37380;45.186;9.792;2022-09-09T05:12:59;58.65;;;37.80;;
51296;SDS011;37380;45.186;9.792;2022-09-09T05:15:28;48.13;;;36.15;;
51296;SDS011;37380;45.186;9.792;2022-09-09T05:17:59;65.72;;;36.45;;
51296;SDS011;37380;45.186;9.792;2022-09-09T05:20:29;48.15;;;34.97;;
51296;SDS011;37380;45.186;9.792;2022-09-09T05:22:56;49.40;;;34.33;;
51296;SDS011;37380;45.186;9.792;2022-09-09T05:25:27;50.22;;;43.08;;
51296;SDS011;37380;45.186;9.792;2022-09-09T05:27:55;61.92;;;41.22;;
51296;SDS011;37380;45.186;9.792;2022-09-09T05:30:22;47.60;;;34.78;;
51296;SDS011;37380;45.186;9.792;2022-09-09T05:32:57;49.30;;;34.63;;
51296;SDS011;37380;45.186;9.792;2022-09-09T05:36:03;43.10;;;32.42;;
51296;SDS011;37380;45.186;9.792;2022-09-09T05:39:03;49.65;;;31.27;;
51296;SDS011;37380;45.186;9.792;2022-09-09T05:41:38;43.95;;;30.88;;
51296;SDS011;37380;45.186;9.792;2022-09-09T05:44:32;45.42;;;31.52;;
51296;SDS011;37380;45.186;9.792;2022-09-09T05:47:00;35.67;;;30.85;;
51296;SDS011;37380;45.186;9.792;2022-09-09T05:49:27;46.22;;;33.30;;
51296;SDS011;37380;45.186;9.792;2022-09-09T05:51:54;43.78;;;34.38;;
51296;SDS011;37380;45.186;9.792;2022-09-09T05:54:29;38.05;;;30.33;;
51296;SDS011;37380;45.186;9.792;2022-09-09T05:57:24;39.08;;;29.45;;
51296;SDS011;37380;45.186;9.792;2022-09-09T05:59:58;59.65;;;32.17;;
51296;SDS011;37380;45.186;9.792;2022-09-09T06:02:59;40.55;;;29.95;;
51296;SDS011;37380;45.186;9.792;2022-09-09T06:05:57;38.10;;;29.42;;
51296;SDS011;37380;45.186;9.792;2022-09-09T06:08:28;39.10;;;29.67;;
51296;SDS011;37380;45.186;9.792;2022-09-09T06:11:00;42.25;;;30.52;;
51296;SDS011;37380;45.186;9.792;2022-09-09T06:13:29;38.75;;;30.13;;
51296;SDS011;37380;45.186;9.792;2022-09-09T06:16:03;46.30;;;30.40;;
51296;SDS011;37380;45.186;9.792;2022-09-09T06:18:58;43.58;;;29.50;;
51296;SDS011;37380;45.186;9.792;2022-09-09T06:21:32;33.95;;;25.83;;
51296;SDS011;37380;45.186;9.792;2022-09-09T06:24:01;41.70;;;26.77;;
51296;SDS011;37380;45.186;9.792;2022-09-09T06:26:30;59.90;;;26.77;;
51296;SDS011;37380;45.186;9.792;2022-09-09T06:29:02;40.72;;;28.02;;
51296;SDS011;37380;45.186;9.792;2022-09-09T06:31:31;37.17;;;27.27;;
51296;SDS011;37380;45.186;9.792;2022-09-09T06:34:07;41.88;;;27.58;;
51296;SDS011;37380;45.186;9.792;2022-09-09T06:36:39;29.17;;;25.38;;
51296;SDS011;37380;45.186;9.792;2022-09-09T06:39:07;43.38;;;27.00;;
51296;SDS011;37380;45.186;9.792;2022-09-09T06:41:46;38.80;;;28.00;;
51296;SDS011;37380;45.186;9.792;2022-09-09T06:44:56;38.78;;;28.70;;
51296;SDS011;37380;45.186;9.792;2022-09-09T06:47:57;46.70;;;29.20;;
51296;SDS011;37380;45.186;9.792;2022-09-09T06:50:31;40.83;;;28.25;;
51296;SDS011;37380;45.186;9.792;2022-09-09T06:53:33;41.05;;;29.42;;
51296;SDS011;37380;45.186;9.792;2022-09-09T06:56:33;44.97;;;32.93;;
51296;SDS011;37380;45.186;9.792;2022-09-09T06:59:12;44.00;;;31.33;;
51296;SDS011;37380;45.186;9.792;2022-09-09T07:02:13;41.50;;;28.05;;
51296;SDS011;37380;45.186;9.792;2022-09-09T07:05:08;46.30;;;30.70;;
51296;SDS011;37380;45.186;9.792;2022-09-09T07:07:35;51.00;;;31.42;;
51296;SDS011;37380;45.186;9.792;2022-09-09T07:10:04;45.47;;;31.33;;
51296;SDS011;37380;45.186;9.792;2022-09-09T07:12:31;58.15;;;31.27;;
51296;SDS011;37380;45.186;9.792;2022-09-09T07:14:59;45.50;;;32.67;;
51296;SDS011;37380;45.186;9.792;2022-09-09T07:17:27;50.17;;;33.28;;
51296;SDS011;37380;45.186;9.792;2022-09-09T07:19:57;39.45;;;29.83;;
51296;SDS011;37380;45.186;9.792;2022-09-09T07:22:24;50.17;;;29.42;;
51296;SDS011;37380;45.186;9.792;2022-09-09T07:24:51;53.42;;;28.83;;
51296;SDS011;37380;45.186;9.792;2022-09-09T07:27:24;46.58;;;30.83;;
51296;SDS011;37380;45.186;9.792;2022-09-09T07:30:25;53.85;;;31.75;;
51296;SDS011;37380;45.186;9.792;2022-09-09T07:33:26;55.78;;;30.30;;
51296;SDS011;37380;45.186;9.792;2022-09-09T07:36:45;55.60;;;29.70;;
51296;SDS011;37380;45.186;9.792;2022-09-09T07:39:40;51.17;;;32.63;;
51296;SDS011;37380;45.186;9.792;2022-09-09T07:42:08;54.75;;;31.13;;
51296;SDS011;37380;45.186;9.792;2022-09-09T07:44:38;50.15;;;33.92;;
51296;SDS011;37380;45.186;9.792;2022-09-09T07:47:12;49.65;;;34.25;;
51296;SDS011;37380;45.186;9.792;2022-09-09T07:49:49;50.80;;;35.58;;
51296;SDS011;37380;45.186;9.792;2022-09-09T07:52:51;62.25;;;30.88;;
51296;SDS011;37380;45.186;9.792;2022-09-09T07:55:45;40.97;;;26.48;;
51296;SDS011;37380;45.186;9.792;2022-09-09T07:58:19;34.92;;;25.48;;
51296;SDS011;37380;45.186;9.792;2022-09-09T08:01:26;43.05;;;29.45;;
51296;SDS011;37380;45.186;9.792;2022-09-09T08:04:32;38.85;;;24.77;;
51296;SDS011;37380;45.186;9.792;2022-09-09T08:07:15;37.05;;;27.50;;
51296;SDS011;37380;45.186;9.792;2022-09-09T08:09:50;44.30;;;25.02;;
51296;SDS011;37380;45.186;9.792;2022-09-09T08:12:21;36.33;;;24.10;;
51296;SDS011;37380;45.186;9.792;2022-09-09T08:14:56;36.70;;;23.23;;
51296;SDS011;37380;45.186;9.792;2022-09-09T08:17:50;39.38;;;22.52;;
51296;SDS011;37380;45.186;9.792;2022-09-09T08:20:18;27.10;;;22.40;;
51296;SDS011;37380;45.186;9.792;2022-09-09T08:22:52;12.63;;;8.10;;
51296;SDS011;37380;45.186;9.792;2022-09-09T08:26:02;5.88;;;3.65;;
51296;SDS011;37380;45.186;9.792;2022-09-09T08:28:57;11.60;;;3.40;;
51296;SDS011;37380;45.186;9.792;2022-09-09T08:31:27;11.82;;;3.47;;
51296;SDS011;37380;45.186;9.792;2022-09-09T08:33:57;4.82;;;2.50;;
51296;SDS011;37380;45.186;9.792;2022-09-09T08:36:31;8.57;;;2.38;;
51296;SDS011;37380;45.186;9.792;2022-09-09T08:39:01;5.00;;;1.80;;
51296;SDS011;37380;45.186;9.792;2022-09-09T08:51:48;18.20;;;3.20;;
51296;SDS011;37380;45.186;9.792;2022-09-09T08:54:43;4.57;;;2.25;;
51296;SDS011;37380;45.186;9.792;2022-09-09T08:57:26;5.68;;;2.17;;
51296;SDS011;37380;45.186;9.792;2022-09-09T09:00:31;3.00;;;2.10;;
51296;SDS011;37380;45.186;9.792;2022-09-09T09:03:53;6.13;;;2.65;;
51296;SDS011;37380;45.186;9.792;2022-09-09T09:07:08;13.10;;;2.53;;
51296;SDS011;37380;45.186;9.792;2022-09-09T09:18:59;6.00;;;1.83;;
51296;SDS011;37380;45.186;9.792;2022-09-09T09:21:39;6.07;;;1.40;;
51296;SDS011;37380;45.186;9.792;2022-09-09T09:24:43;11.15;;;1.75;;
51296;SDS011;37380;45.186;9.792;2022-09-09T09:30:13;3.88;;;1.10;;
51296;SDS011;37380;45.186;9.792;2022-09-09T09:33:02;2.95;;;1.45;;
51296;SDS011;37380;45.186;9.792;2022-09-09T09:35:36;2.20;;;1.35;;
51296;SDS011;37380;45.186;9.792;2022-09-09T09:38:30;1.60;;;1.10;;
51296;SDS011;37380;45.186;9.792;2022-09-09T09:41:28;2.42;;;1.17;;
51296;SDS011;37380;45.186;9.792;2022-09-09T09:43:56;5.45;;;1.23;;
51296;SDS011;37380;45.186;9.792;2022-09-09T09:46:31;2.05;;;1.30;;
51296;SDS011;37380;45.186;9.792;2022-09-09T09:49:31;4.72;;;1.60;;
51296;SDS011;37380;45.186;9.792;2022-09-09T09:52:23;3.95;;;1.20;;
51296;SDS011;37380;45.186;9.792;2022-09-09T09:54:57;5.10;;;1.25;;
51296;SDS011;37380;45.186;9.792;2022-09-09T09:57:33;6.50;;;1.88;;
51296;SDS011;37380;45.186;9.792;2022-09-09T10:00:19;4.55;;;1.38;;
51296;SDS011;37380;45.186;9.792;2022-09-09T10:03:27;6.90;;;2.33;;
51296;SDS011;37380;45.186;9.792;2022-09-09T10:06:33;1.42;;;1.02;;
51296;SDS011;37380;45.186;9.792;2022-09-09T10:09:29;4.45;;;1.65;;
51296;SDS011;37380;45.186;9.792;2022-09-09T10:21:11;8.98;;;2.35;;
51296;SDS011;37380;45.186;9.792;2022-09-09T10:27:15;1.75;;;1.65;;
51296;SDS011;37380;45.186;9.792;2022-09-09T10:30:19;4.70;;;1.80;;
51296;SDS011;37380;45.186;9.792;2022-09-09T10:33:29;3.67;;;2.05;;
51296;SDS011;37380;45.186;9.792;2022-09-09T10:38:40;3.13;;;1.95;;
51296;SDS011;37380;45.186;9.792;2022-09-09T10:55:24;10.93;;;6.25;;
51296;SDS011;37380;45.186;9.792;2022-09-09T10:58:03;6.78;;;5.07;;
51296;SDS011;37380;45.186;9.792;2022-09-09T11:01:09;9.90;;;5.07;;
51296;SDS011;37380;45.186;9.792;2022-09-09T11:05:19;5.43;;;3.92;;
51296;SDS011;37380;45.186;9.792;2022-09-09T11:13:43;9.73;;;5.25;;
51296;SDS011;37380;45.186;9.792;2022-09-09T11:25:21;10.80;;;4.65;;
51296;SDS011;37380;45.186;9.792;2022-09-09T11:40:48;7.80;;;4.68;;
51296;SDS011;37380;45.186;9.792;2022-09-09T11:43:55;7.95;;;5.25;;
51296;SDS011;37380;45.186;9.792;2022-09-09T11:46:33;5.05;;;4.18;;
51296;SDS011;37380;45.186;9.792;2022-09-09T11:49:05;15.05;;;5.72;;
51296;SDS011;37380;45.186;9.792;2022-09-09T11:51:33;12.60;;;5.13;;
51296;SDS011;37380;45.186;9.792;2022-09-09T11:54:02;11.13;;;4.53;;
51296;SDS011;37380;45.186;9.792;2022-09-09T11:56:52;5.50;;;4.28;;
51296;SDS011;37380;45.186;9.792;2022-09-09T11:59:32;7.53;;;3.50;;
51296;SDS011;37380;45.186;9.792;2022-09-09T12:02:33;5.35;;;4.43;;
51296;SDS011;37380;45.186;9.792;2022-09-09T12:05:38;13.32;;;4.07;;
51296;SDS011;37380;45.186;9.792;2022-09-09T12:08:09;6.82;;;4.57;;
51296;SDS011;37380;45.186;9.792;2022-09-09T12:10:54;12.50;;;4.10;;
51296;SDS011;37380;45.186;9.792;2022-09-09T12:13:52;9.65;;;4.55;;
51296;SDS011;37380;45.186;9.792;2022-09-09T12:16:33;11.80;;;4.68;;
51296;SDS011;37380;45.186;9.792;2022-09-09T12:19:12;13.20;;;4.95;;
51296;SDS011;37380;45.186;9.792;2022-09-09T12:21:50;5.75;;;3.70;;
51296;SDS011;37380;45.186;9.792;2022-09-09T12:24:34;4.57;;;4.07;;
51296;SDS011;37380;45.186;9.792;2022-09-09T12:27:26;8.27;;;4.30;;
51296;SDS011;37380;45.186;9.792;2022-09-09T12:30:36;4.70;;;2.60;;
51296;SDS011;37380;45.186;9.792;2022-09-09T12:33:39;7.03;;;2.92;;
51296;SDS011;37380;45.186;9.792;2022-09-09T12:36:12;14.68;;;2.70;;
51296;SDS011;37380;45.186;9.792;2022-09-09T12:38:49;6.65;;;2.88;;
51296;SDS011;37380;45.186;9.792;2022-09-09T12:41:50;7.82;;;2.50;;
51296;SDS011;37380;45.186;9.792;2022-09-09T12:44:24;8.68;;;3.10;;
51296;SDS011;37380;45.186;9.792;2022-09-09T12:47:00;13.32;;;3.08;;
51296;SDS011;37380;45.186;9.792;2022-09-09T12:49:57;5.75;;;2.45;;
51296;SDS011;37380;45.186;9.792;2022-09-09T12:52:31;9.63;;;3.92;;
51296;SDS011;37380;45.186;9.792;2022-09-09T12:55:03;8.35;;;4.93;;
51296;SDS011;37380;45.186;9.792;2022-09-09T12:57:34;9.88;;;4.15;;
51296;SDS011;37380;45.186;9.792;2022-09-09T13:00:24;8.35;;;3.47;;
51296;SDS011;37380;45.186;9.792;2022-09-09T13:03:26;5.90;;;3.15;;
51296;SDS011;37380;45.186;9.792;2022-09-09T13:06:28;5.90;;;2.90;;
51296;SDS011;37380;45.186;9.792;2022-09-09T13:09:24;12.18;;;3.15;;
51296;SDS011;37380;45.186;9.792;2022-09-09T13:11:52;6.38;;;3.08;;
51296;SDS011;37380;45.186;9.792;2022-09-09T13:14:28;6.95;;;2.83;;
51296;SDS011;37380;45.186;9.792;2022-09-09T13:16:59;3.10;;;2.47;;
51296;SDS011;37380;45.186;9.792;2022-09-09T13:19:37;5.13;;;3.85;;
51296;SDS011;37380;45.186;9.792;2022-09-09T13:25:05;10.07;;;3.47;;
51296;SDS011;37380;45.186;9.792;2022-09-09T13:27:36;11.45;;;3.67;;
51296;SDS011;37380;45.186;9.792;2022-09-09T13:30:21;20.52;;;3.30;;
51296;SDS011;37380;45.186;9.792;2022-09-09T13:36:13;8.65;;;3.65;;
51296;SDS011;37380;45.186;9.792;2022-09-09T13:39:15;4.22;;;3.20;;
51296;SDS011;37380;45.186;9.792;2022-09-09T13:42:19;16.88;;;4.13;;
51296;SDS011;37380;45.186;9.792;2022-09-09T13:44:51;7.35;;;4.03;;
51296;SDS011;37380;45.186;9.792;2022-09-09T13:47:30;5.80;;;2.53;;
51296;SDS011;37380;45.186;9.792;2022-09-09T13:50:27;4.07;;;3.00;;
51296;SDS011;37380;45.186;9.792;2022-09-09T13:52:56;15.40;;;4.13;;
51296;SDS011;37380;45.186;9.792;2022-09-09T13:55:27;10.57;;;3.03;;
51296;SDS011;37380;45.186;9.792;2022-09-09T13:58:03;12.52;;;3.88;;
51296;SDS011;37380;45.186;9.792;2022-09-09T14:01:04;7.05;;;3.53;;
51296;SDS011;37380;45.186;9.792;2022-09-09T14:04:05;5.35;;;3.15;;
51296;SDS011;37380;45.186;9.792;2022-09-09T14:07:00;5.50;;;3.50;;
51296;SDS011;37380;45.186;9.792;2022-09-09T14:09:28;5.47;;;4.15;;
51296;SDS011;37380;45.186;9.792;2022-09-09T14:12:01;7.75;;;3.55;;
51296;SDS011;37380;45.186;9.792;2022-09-09T14:15:03;9.95;;;2.97;;
51296;SDS011;37380;45.186;9.792;2022-09-09T14:17:58;10.52;;;4.32;;
51296;SDS011;37380;45.186;9.792;2022-09-09T14:20:25;11.15;;;3.20;;
51296;SDS011;37380;45.186;9.792;2022-09-09T14:22:52;8.27;;;3.35;;
51296;SDS011;37380;45.186;9.792;2022-09-09T14:25:19;9.95;;;3.30;;
51296;SDS011;37380;45.186;9.792;2022-09-09T14:27:52;8.15;;;2.90;;
51296;SDS011;37380;45.186;9.792;2022-09-09T14:30:47;16.98;;;5.35;;
51296;SDS011;37380;45.186;9.792;2022-09-09T14:33:14;14.88;;;3.95;;
51296;SDS011;37380;45.186;9.792;2022-09-09T14:35:42;7.72;;;4.15;;
51296;SDS011;37380;45.186;9.792;2022-09-09T14:38:16;6.70;;;3.08;;
51296;SDS011;37380;45.186;9.792;2022-09-09T14:41:15;8.48;;;2.55;;
51296;SDS011;37380;45.186;9.792;2022-09-09T14:43:44;24.05;;;3.75;;
51296;SDS011;37380;45.186;9.792;2022-09-09T14:46:12;10.48;;;2.70;;
51296;SDS011;37380;45.186;9.792;2022-09-09T14:48:41;5.15;;;3.10;;
51296;SDS011;37380;45.186;9.792;2022-09-09T14:51:16;9.32;;;2.88;;
51296;SDS011;37380;45.186;9.792;2022-09-09T14:54:10;9.13;;;2.58;;
51296;SDS011;37380;45.186;9.792;2022-09-09T14:56:37;4.32;;;2.55;;
51296;SDS011;37380;45.186;9.792;2022-09-09T14:59:11;6.45;;;2.90;;
51296;SDS011;37380;45.186;9.792;2022-09-09T15:02:11;7.68;;;2.80;;
51296;SDS011;37380;45.186;9.792;2022-09-09T15:05:12;8.88;;;3.03;;
51296;SDS011;37380;45.186;9.792;2022-09-09T15:08:07;10.40;;;3.55;;
51296;SDS011;37380;45.186;9.792;2022-09-09T15:10:41;8.23;;;2.85;;
51296;SDS011;37380;45.186;9.792;2022-09-09T15:13:35;4.97;;;2.38;;
51296;SDS011;37380;45.186;9.792;2022-09-09T15:16:05;4.60;;;2.65;;
51296;SDS011;37380;45.186;9.792;2022-09-09T15:18:35;6.10;;;2.40;;
51296;SDS011;37380;45.186;9.792;2022-09-09T15:21:03;5.68;;;2.75;;
51296;SDS011;37380;45.186;9.792;2022-09-09T15:23:32;6.82;;;3.03;;
51296;SDS011;37380;45.186;9.792;2022-09-09T15:25:59;9.98;;;2.10;;
51296;SDS011;37380;45.186;9.792;2022-09-09T15:28:26;5.60;;;2.40;;
51296;SDS011;37380;45.186;9.792;2022-09-09T15:30:54;6.28;;;2.35;;
51296;SDS011;37380;45.186;9.792;2022-09-09T15:33:27;3.58;;;2.20;;
51296;SDS011;37380;45.186;9.792;2022-09-09T15:36:32;2.60;;;2.05;;
51296;SDS011;37380;45.186;9.792;2022-09-09T15:39:56;11.48;;;3.10;;
51296;SDS011;37380;45.186;9.792;2022-09-09T15:42:25;5.75;;;2.42;;
51296;SDS011;37380;45.186;9.792;2022-09-09T15:44:52;6.78;;;2.53;;
51296;SDS011;37380;45.186;9.792;2022-09-09T15:47:21;8.18;;;2.75;;
51296;SDS011;37380;45.186;9.792;2022-09-09T15:49:55;6.57;;;2.95;;
51296;SDS011;37380;45.186;9.792;2022-09-09T15:52:49;12.20;;;3.53;;
51296;SDS011;37380;45.186;9.792;2022-09-09T15:55:16;12.48;;;2.97;;
51296;SDS011;37380;45.186;9.792;2022-09-09T15:57:51;13.88;;;3.15;;
51296;SDS011;37380;45.186;9.792;2022-09-09T16:00:52;5.32;;;3.03;;
51296;SDS011;37380;45.186;9.792;2022-09-09T16:03:53;7.97;;;3.22;;
51296;SDS011;37380;45.186;9.792;2022-09-09T16:07:01;5.60;;;2.35;;
51296;SDS011;37380;45.186;9.792;2022-09-09T16:10:04;8.30;;;3.58;;
51296;SDS011;37380;45.186;9.792;2022-09-09T16:13:00;11.32;;;3.63;;
51296;SDS011;37380;45.186;9.792;2022-09-09T16:15:27;15.45;;;3.33;;
51296;SDS011;37380;45.186;9.792;2022-09-09T16:17:54;7.50;;;3.65;;
51296;SDS011;37380;45.186;9.792;2022-09-09T16:20:21;12.57;;;2.83;;
51296;SDS011;37380;45.186;9.792;2022-09-09T16:22:48;20.27;;;2.85;;
51296;SDS011;37380;45.186;9.792;2022-09-09T16:25:22;8.93;;;2.67;;
51296;SDS011;37380;45.186;9.792;2022-09-09T16:28:16;6.97;;;3.15;;
51296;SDS011;37380;45.186;9.792;2022-09-09T16:30:43;11.68;;;3.78;;
51296;SDS011;37380;45.186;9.792;2022-09-09T16:33:10;12.50;;;3.45;;
51296;SDS011;37380;45.186;9.792;2022-09-09T16:35:37;5.20;;;3.08;;
51296;SDS011;37380;45.186;9.792;2022-09-09T16:38:05;4.88;;;2.60;;
51296;SDS011;37380;45.186;9.792;2022-09-09T16:40:33;9.05;;;2.55;;
51296;SDS011;37380;45.186;9.792;2022-09-09T16:43:08;14.02;;;3.40;;
51296;SDS011;37380;45.186;9.792;2022-09-09T16:46:13;8.98;;;2.63;;
51296;SDS011;37380;45.186;9.792;2022-09-09T16:49:16;12.05;;;3.70;;
51296;SDS011;37380;45.186;9.792;2022-09-09T16:52:10;6.90;;;2.25;;
51296;SDS011;37380;45.186;9.792;2022-09-09T16:54:43;5.95;;;2.63;;
51296;SDS011;37380;45.186;9.792;2022-09-09T16:57:44;11.82;;;2.65;;
51296;SDS011;37380;45.186;9.792;2022-09-09T17:00:45;7.28;;;2.08;;
51296;SDS011;37380;45.186;9.792;2022-09-09T17:03:46;15.93;;;3.72;;
51296;SDS011;37380;45.186;9.792;2022-09-09T17:06:40;13.75;;;4.55;;
51296;SDS011;37380;45.186;9.792;2022-09-09T17:09:09;6.13;;;3.95;;
51296;SDS011;37380;45.186;9.792;2022-09-09T17:11:37;10.10;;;2.55;;
51296;SDS011;37380;45.186;9.792;2022-09-09T17:14:06;19.77;;;3.03;;
51296;SDS011;37380;45.186;9.792;2022-09-09T17:16:36;12.05;;;3.20;;
51296;SDS011;37380;45.186;9.792;2022-09-09T17:19:10;7.88;;;3.55;;
51296;SDS011;37380;45.186;9.792;2022-09-09T17:22:12;6.82;;;2.50;;
51296;SDS011;37380;45.186;9.792;2022-09-09T17:25:06;10.00;;;3.70;;
51296;SDS011;37380;45.186;9.792;2022-09-09T17:27:34;11.27;;;3.67;;
51296;SDS011;37380;45.186;9.792;2022-09-09T17:30:01;8.95;;;2.80;;
51296;SDS011;37380;45.186;9.792;2022-09-09T17:32:29;4.47;;;2.15;;
51296;SDS011;37380;45.186;9.792;2022-09-09T17:34:57;11.75;;;3.03;;
51296;SDS011;37380;45.186;9.792;2022-09-09T17:37:24;3.95;;;2.13;;
51296;SDS011;37380;45.186;9.792;2022-09-09T17:39:57;3.40;;;2.42;;
51296;SDS011;37380;45.186;9.792;2022-09-09T17:42:58;12.48;;;3.35;;
51296;SDS011;37380;45.186;9.792;2022-09-09T17:45:52;11.50;;;2.83;;
51296;SDS011;37380;45.186;9.792;2022-09-09T17:48:26;6.05;;;3.03;;
51296;SDS011;37380;45.186;9.792;2022-09-09T17:51:27;9.43;;;3.33;;
51296;SDS011;37380;45.186;9.792;2022-09-09T17:54:30;5.00;;;3.15;;
51296;SDS011;37380;45.186;9.792;2022-09-09T17:57:24;15.75;;;3.90;;
51296;SDS011;37380;45.186;9.792;2022-09-09T17:59:58;10.68;;;4.97;;
51296;SDS011;37380;45.186;9.792;2022-09-09T18:02:59;9.38;;;4.47;;
51296;SDS011;37380;45.186;9.792;2022-09-09T18:06:04;10.65;;;5.50;;
51296;SDS011;37380;45.186;9.792;2022-09-09T18:08:53;9.68;;;5.43;;
51296;SDS011;37380;45.186;9.792;2022-09-09T18:11:22;8.02;;;5.88;;
51296;SDS011;37380;45.186;9.792;2022-09-09T18:14:02;12.55;;;5.90;;
51296;SDS011;37380;45.186;9.792;2022-09-09T18:16:59;10.88;;;5.28;;
51296;SDS011;37380;45.186;9.792;2022-09-09T18:19:34;11.38;;;6.22;;
51296;SDS011;37380;45.186;9.792;2022-09-09T18:22:35;10.85;;;5.32;;
51296;SDS011;37380;45.186;9.792;2022-09-09T18:25:39;9.88;;;5.40;;
51296;SDS011;37380;45.186;9.792;2022-09-09T18:28:33;14.57;;;6.63;;
51296;SDS011;37380;45.186;9.792;2022-09-09T18:31:03;10.20;;;5.97;;
51296;SDS011;37380;45.186;9.792;2022-09-09T18:33:33;15.73;;;6.35;;